createdAt,value
2019-01-15T00:00:14.790Z,97589.45
2019-01-15T00:01:22.697Z,97585.55
2019-01-15T00:02:30.489Z,97594.27
2019-01-15T00:03:38.425Z,97586.78
2019-01-15T00:04:46.254Z,97584.02
2019-01-15T00:05:53.755Z,97584.36
2019-01-15T00:07:01.490Z,97582.98
2019-01-15T00:08:09.134Z,97575.10
2019-01-15T00:09:16.763Z,97578.47
2019-01-15T00:10:24.466Z,97586.27
2019-01-15T00:11:32.292Z,97587.57
2019-01-15T00:12:40.904Z,97587.06
2019-01-15T00:13:48.387Z,97587.06
2019-01-15T00:14:55.989Z,97593.11
2019-01-15T00:16:03.752Z,97596.17
2019-01-15T00:17:11.744Z,97584.31
2019-01-15T00:18:23.732Z,97596.02
2019-01-15T00:19:31.335Z,97599.84
2019-01-15T00:20:38.798Z,97581.33
2019-01-15T00:21:46.382Z,97575.74
2019-01-15T00:22:53.904Z,97593.88
2019-01-15T00:24:01.452Z,97594.26
2019-01-15T00:25:09.231Z,97596.40
2019-01-15T00:26:16.921Z,97597.70
2019-01-15T00:27:24.575Z,97592.42
2019-01-15T00:28:32.418Z,97596.27
2019-01-15T00:29:39.883Z,97596.27
2019-01-15T00:30:47.669Z,97597.95
2019-01-15T00:31:55.051Z,97603.62
2019-01-15T00:33:02.401Z,97609.13
2019-01-15T00:34:09.948Z,97605.38
2019-01-15T00:35:17.305Z,97617.13
2019-01-15T00:36:24.852Z,97601.22
2019-01-15T00:37:32.842Z,97604.20
2019-01-15T00:38:40.171Z,97606.42
2019-01-15T00:39:47.835Z,97603.59
2019-01-15T00:40:55.074Z,97612.28
2019-01-15T00:42:02.905Z,97610.02
2019-01-15T00:43:10.838Z,97612.23
2019-01-15T00:44:18.304Z,97615.68
2019-01-15T00:45:26.063Z,97614.38
2019-01-15T00:46:33.619Z,97619.97
2019-01-15T00:47:41.337Z,97616.91
2019-01-15T00:48:49.020Z,97620.35
2019-01-15T00:49:56.705Z,97623.33
2019-01-15T00:51:04.729Z,97621.12
2019-01-15T00:52:12.330Z,97629.25
2019-01-15T00:53:19.759Z,97626.12
2019-01-15T00:54:27.322Z,97629.36
2019-01-15T00:55:35.101Z,97629.13
2019-01-15T00:56:42.937Z,97628.93
2019-01-15T00:57:50.528Z,97625.71
2019-01-15T00:58:57.979Z,97629.95
2019-01-15T01:00:16.738Z,97625.97
2019-01-15T01:01:24.288Z,97627.95
2019-01-15T01:02:32.321Z,97626.98
2019-01-15T01:03:40.294Z,97635.10
2019-01-15T01:04:48.009Z,97630.73
2019-01-15T01:05:55.898Z,97626.30
2019-01-15T01:07:03.372Z,97634.05
2019-01-15T01:08:10.947Z,97629.98
2019-01-15T01:09:19.366Z,97635.50
2019-01-15T01:10:26.928Z,97631.47
2019-01-15T01:11:34.990Z,97635.30
2019-01-15T01:12:42.345Z,97632.23
2019-01-15T01:13:50.466Z,97621.44
2019-01-15T01:14:58.070Z,97630.17
2019-01-15T01:16:05.794Z,97628.78
2019-01-15T01:17:13.581Z,97628.24
2019-01-15T01:18:21.086Z,97627.78
2019-01-15T01:19:28.859Z,97618.83
2019-01-15T01:20:37.130Z,97633.89
2019-01-15T01:21:45.316Z,97639.27
2019-01-15T01:22:52.943Z,97633.67
2019-01-15T01:24:00.589Z,97639.09
2019-01-15T01:25:11.811Z,97626.61
2019-01-15T01:26:19.931Z,97636.18
2019-01-15T01:27:27.689Z,97619.00
2019-01-15T01:28:35.550Z,97630.13
2019-01-15T01:29:44.038Z,97621.78
2019-01-15T01:30:51.806Z,97626.98
2019-01-15T01:31:59.561Z,97642.15
2019-01-15T01:33:07.023Z,97636.78
2019-01-15T01:34:15.044Z,97635.02
2019-01-15T01:35:22.881Z,97633.22
2019-01-15T01:36:30.439Z,97642.25
2019-01-15T01:37:38.574Z,97640.11
2019-01-15T01:38:46.567Z,97634.44
2019-01-15T01:39:54.055Z,97636.58
2019-01-15T01:41:01.706Z,97645.31
2019-01-15T01:42:09.325Z,97643.09
2019-01-15T01:43:16.815Z,97643.39
2019-01-15T01:44:24.310Z,97634.15
2019-01-15T01:45:31.681Z,97640.66
2019-01-15T01:46:39.416Z,97645.79
2019-01-15T01:47:46.899Z,97644.11
2019-01-15T01:48:54.162Z,97653.14
2019-01-15T01:50:01.597Z,97654.36
2019-01-15T01:51:08.889Z,97627.36
2019-01-15T01:52:16.280Z,97647.77
2019-01-15T01:53:23.882Z,97645.50
2019-01-15T01:54:31.265Z,97639.75
2019-01-15T01:55:38.791Z,97647.19
2019-01-15T01:56:46.289Z,97642.44
2019-01-15T01:57:53.658Z,97665.03
2019-01-15T01:59:01.498Z,97657.60
2019-01-15T02:00:18.469Z,97653.08
2019-01-15T02:01:25.935Z,97651.65
2019-01-15T02:02:33.419Z,97648.96
2019-01-15T02:03:41.050Z,97656.16
2019-01-15T02:04:48.485Z,97646.45
2019-01-15T02:05:55.970Z,97655.82
2019-01-15T02:07:03.429Z,97657.88
2019-01-15T02:08:11.047Z,97653.05
2019-01-15T02:09:18.672Z,97648.77
2019-01-15T02:10:26.452Z,97660.16
2019-01-15T02:11:34.348Z,97648.30
2019-01-15T02:12:41.995Z,97652.58
2019-01-15T02:13:49.687Z,97659.31
2019-01-15T02:14:57.396Z,97657.12
2019-01-15T02:16:04.783Z,97660.16
2019-01-15T02:17:12.398Z,97665.70
2019-01-15T02:18:19.986Z,97668.77
2019-01-15T02:19:29.018Z,97674.81
2019-01-15T02:20:36.580Z,97658.80
2019-01-15T02:21:44.446Z,97665.16
2019-01-15T02:22:51.972Z,97660.87
2019-01-15T02:23:59.465Z,97677.72
2019-01-15T02:25:12.746Z,97672.59
2019-01-15T02:26:20.179Z,97680.86
2019-01-15T02:27:28.113Z,97671.50
2019-01-15T02:28:35.585Z,97679.47
2019-01-15T02:29:43.223Z,97672.66
2019-01-15T02:30:50.875Z,97680.90
2019-01-15T02:31:58.527Z,97683.58
2019-01-15T02:33:06.670Z,97676.99
2019-01-15T02:34:14.132Z,97676.99
2019-01-15T02:35:21.754Z,97681.77
2019-01-15T02:36:29.574Z,97678.63
2019-01-15T02:37:36.943Z,97675.86
2019-01-15T02:38:44.530Z,97680.56
2019-01-15T02:39:52.267Z,97688.89
2019-01-15T02:40:59.707Z,97684.05
2019-01-15T02:42:07.485Z,97679.27
2019-01-15T02:43:15.167Z,97689.68
2019-01-15T02:44:22.690Z,97685.52
2019-01-15T02:45:30.267Z,97689.59
2019-01-15T02:46:38.166Z,97685.52
2019-01-15T02:47:45.867Z,97685.44
2019-01-15T02:48:53.391Z,97691.49
2019-01-15T02:50:00.792Z,97688.58
2019-01-15T02:51:08.258Z,97688.89
2019-01-15T02:52:15.799Z,97677.88
2019-01-15T02:53:23.496Z,97685.69
2019-01-15T02:54:31.050Z,97692.41
2019-01-15T02:55:38.731Z,97690.19
2019-01-15T02:56:46.456Z,97688.97
2019-01-15T02:57:54.096Z,97682.08
2019-01-15T02:59:01.656Z,97687.28
2019-01-15T03:00:13.808Z,97693.03
2019-01-15T03:01:21.506Z,97691.11
2019-01-15T03:02:29.259Z,97690.57
2019-01-15T03:03:36.617Z,97687.45
2019-01-15T03:04:44.288Z,97680.56
2019-01-15T03:05:51.730Z,97686.82
2019-01-15T03:06:59.579Z,97691.73
2019-01-15T03:08:07.126Z,97688.71
2019-01-15T03:09:14.728Z,97690.42
2019-01-15T03:10:23.277Z,97691.86
2019-01-15T03:11:31.020Z,97696.60
2019-01-15T03:12:39.378Z,97687.88
2019-01-15T03:13:46.780Z,97689.63
2019-01-15T03:14:54.569Z,97692.70
2019-01-15T03:16:02.246Z,97703.50
2019-01-15T03:17:09.841Z,97698.75
2019-01-15T03:18:17.354Z,97698.70
2019-01-15T03:19:24.795Z,97693.72
2019-01-15T03:20:34.036Z,97698.00
2019-01-15T03:21:41.658Z,97700.98
2019-01-15T03:22:49.070Z,97698.00
2019-01-15T03:23:56.601Z,97697.63
2019-01-15T03:25:05.835Z,97700.23
2019-01-15T03:26:13.415Z,97701.83
2019-01-15T03:27:20.732Z,97700.86
2019-01-15T03:28:29.193Z,97696.34
2019-01-15T03:29:36.693Z,97703.69
2019-01-15T03:30:44.252Z,97699.48
2019-01-15T03:31:51.856Z,97704.99
2019-01-15T03:32:59.428Z,97702.39
2019-01-15T03:34:06.928Z,97713.06
2019-01-15T03:35:14.606Z,97699.49
2019-01-15T03:36:22.127Z,97704.58
2019-01-15T03:37:29.620Z,97707.02
2019-01-15T03:38:37.304Z,97708.33
2019-01-15T03:39:45.050Z,97706.64
2019-01-15T03:40:52.836Z,97706.64
2019-01-15T03:42:00.464Z,97704.03
2019-01-15T03:43:08.207Z,97714.08
2019-01-15T03:44:15.773Z,97702.09
2019-01-15T03:45:23.287Z,97716.97
2019-01-15T03:46:30.860Z,97715.13
2019-01-15T03:47:38.523Z,97705.88
2019-01-15T03:48:46.130Z,97710.30
2019-01-15T03:49:54.498Z,97719.42
2019-01-15T03:51:01.986Z,97712.14
2019-01-15T03:52:09.546Z,97694.83
2019-01-15T03:53:17.081Z,97707.55
2019-01-15T03:54:25.032Z,97716.20
2019-01-15T03:55:32.899Z,97706.75
2019-01-15T03:57:54.772Z,97701.88
2019-01-15T03:59:02.592Z,97709.14
2019-01-15T04:00:17.072Z,97714.02
2019-01-15T04:01:24.551Z,97707.91
2019-01-15T04:02:32.243Z,97707.50
2019-01-15T04:03:39.828Z,97710.95
2019-01-15T04:04:47.937Z,97714.34
2019-01-15T04:05:55.604Z,97715.03
2019-01-15T04:07:03.172Z,97715.37
2019-01-15T04:08:10.679Z,97714.37
2019-01-15T04:09:18.526Z,97718.73
2019-01-15T04:10:26.251Z,97726.62
2019-01-15T04:11:33.713Z,97721.55
2019-01-15T04:12:41.204Z,97732.42
2019-01-15T04:13:48.595Z,97721.32
2019-01-15T04:14:56.192Z,97721.06
2019-01-15T04:16:03.841Z,97733.06
2019-01-15T04:17:11.337Z,97742.72
2019-01-15T04:18:19.129Z,97732.46
2019-01-15T04:19:26.629Z,97731.52
2019-01-15T04:20:34.348Z,97735.54
2019-01-15T04:21:41.881Z,97740.91
2019-01-15T04:22:49.742Z,97735.31
2019-01-15T04:23:57.552Z,97733.14
2019-01-15T04:25:06.105Z,97735.44
2019-01-15T04:26:14.012Z,97738.88
2019-01-15T04:27:21.749Z,97736.28
2019-01-15T04:28:29.595Z,97744.23
2019-01-15T04:29:37.245Z,97742.14
2019-01-15T04:30:44.877Z,97736.55
2019-01-15T04:31:52.567Z,97740.53
2019-01-15T04:33:00.484Z,97746.58
2019-01-15T04:34:08.268Z,97748.80
2019-01-15T04:35:15.994Z,97736.85
2019-01-15T04:36:24.104Z,97742.95
2019-01-15T04:37:31.746Z,97745.85
2019-01-15T04:38:39.280Z,97747.53
2019-01-15T04:39:46.895Z,97750.45
2019-01-15T04:40:54.946Z,97744.09
2019-01-15T04:42:02.693Z,97742.38
2019-01-15T04:43:10.588Z,97751.95
2019-01-15T04:44:18.296Z,97744.20
2019-01-15T04:45:26.172Z,97745.85
2019-01-15T04:46:33.658Z,97751.05
2019-01-15T04:47:41.411Z,97754.12
2019-01-15T04:48:49.471Z,97749.91
2019-01-15T04:49:57.011Z,97752.77
2019-01-15T04:51:04.933Z,97752.42
2019-01-15T04:52:13.116Z,97752.05
2019-01-15T04:53:21.031Z,97747.38
2019-01-15T04:54:28.569Z,97744.58
2019-01-15T04:55:40.694Z,97754.28
2019-01-15T04:56:48.389Z,97741.47
2019-01-15T04:57:56.039Z,97753.77
2019-01-15T04:59:03.452Z,97753.81
2019-01-15T05:00:20.847Z,97749.53
2019-01-15T05:01:28.352Z,97753.31
2019-01-15T05:02:37.170Z,97754.09
2019-01-15T05:03:44.786Z,97754.55
2019-01-15T05:04:52.703Z,97747.27
2019-01-15T05:06:00.339Z,97749.03
2019-01-15T05:07:07.962Z,97760.73
2019-01-15T05:08:15.532Z,97759.09
2019-01-15T05:09:24.786Z,97762.15
2019-01-15T05:10:33.007Z,97755.26
2019-01-15T05:11:40.770Z,97751.50
2019-01-15T05:12:48.293Z,97758.05
2019-01-15T05:13:56.002Z,97757.16
2019-01-15T05:15:04.280Z,97760.60
2019-01-15T05:16:12.025Z,97760.60
2019-01-15T05:17:20.024Z,97758.39
2019-01-15T05:18:27.647Z,97758.31
2019-01-15T05:19:35.341Z,97761.30
2019-01-15T05:20:43.235Z,97757.33
2019-01-15T05:23:01.496Z,97745.17
2019-01-15T05:24:09.406Z,97750.70
2019-01-15T05:25:22.106Z,97757.20
2019-01-15T05:26:29.929Z,97767.49
2019-01-15T05:27:41.848Z,97751.89
2019-01-15T05:28:49.907Z,97752.20
2019-01-15T05:29:57.797Z,97754.03
2019-01-15T05:31:05.721Z,97760.46
2019-01-15T05:32:13.315Z,97757.22
2019-01-15T05:33:21.219Z,97755.92
2019-01-15T05:34:31.751Z,97760.66
2019-01-15T05:35:39.617Z,97759.36
2019-01-15T05:36:47.235Z,97762.34
2019-01-15T05:37:55.081Z,97761.36
2019-01-15T05:39:03.431Z,97769.05
2019-01-15T05:40:14.957Z,97762.09
2019-01-15T05:41:22.909Z,97765.77
2019-01-15T05:42:31.001Z,97766.76
2019-01-15T05:43:39.192Z,97770.09
2019-01-15T05:44:47.134Z,97770.86
2019-01-15T05:45:55.538Z,97775.15
2019-01-15T05:47:03.276Z,97778.66
2019-01-15T05:48:12.809Z,97773.15
2019-01-15T05:49:20.722Z,97783.41
2019-01-15T05:50:30.282Z,97783.61
2019-01-15T05:51:38.529Z,97784.00
2019-01-15T05:52:46.322Z,97786.33
2019-01-15T05:53:54.086Z,97791.42
2019-01-15T05:55:02.001Z,97791.34
2019-01-15T05:56:10.148Z,97791.03
2019-01-15T05:57:20.889Z,97794.59
2019-01-15T05:58:28.557Z,97798.29
2019-01-15T05:59:36.240Z,97793.09
2019-01-15T06:00:43.966Z,97802.61
2019-01-15T06:01:51.815Z,97796.75
2019-01-15T06:02:59.578Z,97802.87
2019-01-15T06:04:07.286Z,97804.94
2019-01-15T06:05:15.154Z,97800.47
2019-01-15T06:06:23.488Z,97797.80
2019-01-15T06:07:33.782Z,97802.61
2019-01-15T06:08:41.576Z,97808.27
2019-01-15T06:09:49.483Z,97806.91
2019-01-15T06:10:57.048Z,97804.69
2019-01-15T06:12:04.893Z,97802.16
2019-01-15T06:13:12.419Z,97801.35
2019-01-15T06:14:20.031Z,97802.34
2019-01-15T06:15:27.693Z,97808.98
2019-01-15T06:16:37.539Z,97803.82
2019-01-15T06:17:45.331Z,97809.09
2019-01-15T06:18:52.863Z,97813.52
2019-01-15T06:20:00.411Z,97819.58
2019-01-15T06:21:08.061Z,97811.77
2019-01-15T06:22:15.458Z,97815.81
2019-01-15T06:23:23.458Z,97812.80
2019-01-15T06:24:31.498Z,97815.39
2019-01-15T06:25:39.712Z,97814.44
2019-01-15T06:26:47.252Z,97807.94
2019-01-15T06:27:54.772Z,97818.80
2019-01-15T06:29:02.755Z,97817.53
2019-01-15T06:30:20.024Z,97811.91
2019-01-15T06:31:27.636Z,97810.16
2019-01-15T06:32:35.443Z,97823.16
2019-01-15T06:33:43.126Z,97819.83
2019-01-15T06:34:51.487Z,97812.55
2019-01-15T06:35:59.220Z,97823.13
2019-01-15T06:37:06.773Z,97818.91
2019-01-15T06:38:15.109Z,97818.59
2019-01-15T06:39:22.744Z,97824.75
2019-01-15T06:40:30.488Z,97826.19
2019-01-15T06:41:38.522Z,97830.66
2019-01-15T06:42:46.310Z,97828.19
2019-01-15T06:43:54.153Z,97822.53
2019-01-15T06:45:02.168Z,97827.41
2019-01-15T06:46:09.733Z,97836.52
2019-01-15T06:47:17.722Z,97837.00
2019-01-15T06:48:25.421Z,97829.66
2019-01-15T06:49:33.135Z,97838.30
2019-01-15T06:50:40.890Z,97841.72
2019-01-15T06:51:48.642Z,97851.06
2019-01-15T06:52:57.292Z,97844.88
2019-01-15T06:54:05.227Z,97852.05
2019-01-15T06:55:17.044Z,97848.50
2019-01-15T06:56:24.526Z,97848.68
2019-01-15T06:57:32.192Z,97852.41
2019-01-15T06:58:40.335Z,97850.05
2019-01-15T06:59:49.328Z,97849.09
2019-01-15T07:00:57.788Z,97853.84
2019-01-15T07:02:05.550Z,97852.09
2019-01-15T07:03:13.135Z,97861.19
2019-01-15T07:04:20.859Z,97854.69
2019-01-15T07:05:28.715Z,97856.45
2019-01-15T07:06:36.288Z,97854.97
2019-01-15T07:07:44.179Z,97858.27
2019-01-15T07:08:52.068Z,97850.78
2019-01-15T07:09:59.874Z,97851.37
2019-01-15T07:11:07.593Z,97852.80
2019-01-15T07:12:15.370Z,97861.55
2019-01-15T07:13:23.176Z,97859.39
2019-01-15T07:14:30.826Z,97850.45
2019-01-15T07:15:38.407Z,97861.64
2019-01-15T07:16:46.597Z,97862.11
2019-01-15T07:17:54.131Z,97865.66
2019-01-15T07:19:01.837Z,97865.80
2019-01-15T07:20:16.433Z,97871.53
2019-01-15T07:21:26.191Z,97878.58
2019-01-15T07:22:34.291Z,97875.34
2019-01-15T07:23:43.455Z,97875.42
2019-01-15T07:24:51.101Z,97872.37
2019-01-15T07:25:59.412Z,97870.16
2019-01-15T07:27:07.472Z,97888.48
2019-01-15T07:28:15.218Z,97882.72
2019-01-15T07:29:23.050Z,97882.71
2019-01-15T07:30:38.396Z,97888.97
2019-01-15T07:31:46.004Z,97882.59
2019-01-15T07:32:55.355Z,97879.88
2019-01-15T07:34:03.731Z,97890.63
2019-01-15T07:35:12.147Z,97887.76
2019-01-15T07:36:20.145Z,97887.80
2019-01-15T07:37:27.852Z,97879.98
2019-01-15T07:38:35.421Z,97882.44
2019-01-15T07:39:43.297Z,97887.47
2019-01-15T07:40:50.923Z,97881.22
2019-01-15T07:41:58.750Z,97881.11
2019-01-15T07:43:06.779Z,97881.84
2019-01-15T07:44:14.371Z,97887.77
2019-01-15T07:45:22.012Z,97888.84
2019-01-15T07:46:29.743Z,97887.13
2019-01-15T07:47:37.316Z,97896.39
2019-01-15T07:48:45.943Z,97895.23
2019-01-15T07:49:54.050Z,97896.45
2019-01-15T07:51:02.384Z,97895.47
2019-01-15T07:52:10.047Z,97898.61
2019-01-15T07:53:18.060Z,97901.33
2019-01-15T07:54:25.843Z,97897.03
2019-01-15T07:55:33.479Z,97899.52
2019-01-15T07:56:41.293Z,97903.36
2019-01-15T07:57:49.276Z,97914.62
2019-01-15T07:58:57.431Z,97911.02
2019-01-15T08:00:09.751Z,97909.34
2019-01-15T08:01:18.707Z,97911.74
2019-01-15T08:02:26.720Z,97905.23
2019-01-15T08:03:34.208Z,97913.39
2019-01-15T08:04:42.071Z,97919.44
2019-01-15T08:05:50.168Z,97911.94
2019-01-15T08:06:58.018Z,97910.56
2019-01-15T08:08:05.726Z,97910.64
2019-01-15T08:09:13.536Z,97916.12
2019-01-15T08:10:21.373Z,97917.34
2019-01-15T08:11:29.307Z,97921.45
2019-01-15T08:12:37.166Z,97921.30
2019-01-15T08:13:45.118Z,97917.78
2019-01-15T08:14:53.152Z,97918.50
2019-01-15T08:16:00.938Z,97916.81
2019-01-15T08:17:08.798Z,97914.91
2019-01-15T08:18:16.614Z,97916.55
2019-01-15T08:19:24.441Z,97920.50
2019-01-15T08:20:32.078Z,97920.16
2019-01-15T08:21:39.676Z,97918.31
2019-01-15T08:22:47.206Z,97920.84
2019-01-15T08:23:54.792Z,97923.79
2019-01-15T08:25:02.991Z,97918.50
2019-01-15T08:26:10.565Z,97924.02
2019-01-15T08:27:18.226Z,97926.05
2019-01-15T08:28:26.153Z,97924.89
2019-01-15T08:29:33.722Z,97921.94
2019-01-15T08:30:41.229Z,97926.59
2019-01-15T08:31:49.111Z,97919.42
2019-01-15T08:32:56.817Z,97910.33
2019-01-15T08:34:04.607Z,97920.52
2019-01-15T08:35:13.258Z,97914.78
2019-01-15T08:36:21.146Z,97909.05
2019-01-15T08:37:28.738Z,97920.25
2019-01-15T08:38:36.214Z,97917.59
2019-01-15T08:39:44.159Z,97921.28
2019-01-15T08:40:51.689Z,97910.67
2019-01-15T08:41:59.827Z,97917.64
2019-01-15T08:43:07.376Z,97918.60
2019-01-15T08:44:19.144Z,97906.64
2019-01-15T08:45:24.339Z,97917.64
2019-01-15T08:46:31.924Z,97916.89
2019-01-15T08:47:41.076Z,97917.16
2019-01-15T08:48:49.097Z,97914.16
2019-01-15T08:49:56.565Z,97916.61
2019-01-15T08:51:04.473Z,97904.56
2019-01-15T08:52:12.284Z,97912.69
2019-01-15T08:53:22.023Z,97919.27
2019-01-15T08:54:29.956Z,97908.14
2019-01-15T08:55:37.837Z,97911.14
2019-01-15T08:56:45.901Z,97906.67
2019-01-15T08:57:54.046Z,97894.64
2019-01-15T08:59:03.836Z,97913.37
2019-01-15T09:00:14.803Z,97900.56
2019-01-15T09:01:22.294Z,97911.69
2019-01-15T09:02:30.297Z,97910.00
2019-01-15T09:03:37.812Z,97902.63
2019-01-15T09:04:45.657Z,97900.10
2019-01-15T09:05:53.645Z,97896.32
2019-01-15T09:07:02.867Z,97896.73
2019-01-15T09:08:10.339Z,97888.81
2019-01-15T09:09:18.246Z,97898.58
2019-01-15T09:10:26.051Z,97894.34
2019-01-15T09:11:33.724Z,97896.94
2019-01-15T09:12:41.327Z,97907.42
2019-01-15T09:13:49.092Z,97900.33
2019-01-15T09:14:56.910Z,97908.28
2019-01-15T09:16:04.628Z,97909.47
2019-01-15T09:17:12.355Z,97910.09
2019-01-15T09:18:19.944Z,97920.59
2019-01-15T09:19:27.446Z,97916.95
2019-01-15T09:20:35.163Z,97925.55
2019-01-15T09:21:42.853Z,97923.38
2019-01-15T09:22:51.211Z,97914.81
2019-01-15T09:23:58.968Z,97922.14
2019-01-15T09:25:07.171Z,97916.03
2019-01-15T09:26:15.432Z,97923.11
2019-01-15T09:27:23.286Z,97932.58
2019-01-15T09:28:31.137Z,97933.63
2019-01-15T09:29:38.926Z,97924.47
2019-01-15T09:30:46.413Z,97914.96
2019-01-15T09:31:54.068Z,97917.13
2019-01-15T09:33:01.841Z,97887.56
2019-01-15T09:34:09.884Z,97896.39
2019-01-15T09:35:18.238Z,97899.23
2019-01-15T09:36:26.112Z,97890.77
2019-01-15T09:37:34.110Z,97899.13
2019-01-15T09:38:41.773Z,97894.61
2019-01-15T09:39:49.279Z,97898.21
2019-01-15T09:40:56.779Z,97894.81
2019-01-15T09:42:05.905Z,97887.50
2019-01-15T09:43:13.794Z,97898.80
2019-01-15T09:44:21.665Z,97895.80
2019-01-15T09:45:29.433Z,97889.44
2019-01-15T09:46:36.951Z,97896.53
2019-01-15T09:47:55.552Z,97891.99
2019-01-15T09:49:03.385Z,97888.94
2019-01-15T09:50:12.989Z,97885.48
2019-01-15T09:51:20.747Z,97873.41
2019-01-15T09:52:28.495Z,97857.52
2019-01-15T09:53:36.079Z,97872.29
2019-01-15T09:54:45.303Z,97858.06
2019-01-15T09:55:52.984Z,97867.84
2019-01-15T09:57:00.684Z,97857.85
2019-01-15T09:58:08.211Z,97868.70
2019-01-15T09:59:15.818Z,97850.27
2019-01-15T10:00:23.627Z,97856.78
2019-01-15T10:01:31.649Z,97861.08
2019-01-15T10:02:39.513Z,97855.31
2019-01-15T10:03:47.358Z,97858.47
2019-01-15T10:04:54.947Z,97861.63
2019-01-15T10:06:02.987Z,97860.61
2019-01-15T10:07:10.829Z,97860.28
2019-01-15T10:08:18.463Z,97861.45
2019-01-15T10:09:26.460Z,97848.92
2019-01-15T10:10:34.203Z,97848.45
2019-01-15T10:11:41.942Z,97851.06
2019-01-15T10:12:49.879Z,97849.84
2019-01-15T10:13:57.705Z,97851.77
2019-01-15T10:15:10.230Z,97842.48
2019-01-15T10:16:17.714Z,97833.98
2019-01-15T10:17:25.470Z,97839.58
2019-01-15T10:18:33.848Z,97835.83
2019-01-15T10:19:41.484Z,97836.59
2019-01-15T10:20:49.524Z,97849.50
2019-01-15T10:21:57.251Z,97836.36
2019-01-15T10:23:05.075Z,97839.59
2019-01-15T10:24:12.944Z,97834.30
2019-01-15T10:25:27.584Z,97839.73
2019-01-15T10:26:35.184Z,97840.86
2019-01-15T10:27:43.586Z,97843.54
2019-01-15T10:28:51.166Z,97828.28
2019-01-15T10:30:00.740Z,97832.25
2019-01-15T10:31:46.465Z,97842.72
2019-01-15T10:33:07.703Z,97846.36
2019-01-15T10:34:16.760Z,97849.19
2019-01-15T10:35:45.946Z,97838.08
2019-01-15T10:36:52.251Z,97843.80
2019-01-15T10:38:00.076Z,97841.58
2019-01-15T10:39:10.679Z,97847.27
2019-01-15T10:40:18.433Z,97842.67
2019-01-15T10:41:26.485Z,97855.40
2019-01-15T10:42:34.263Z,97858.94
2019-01-15T10:43:42.040Z,97854.64
2019-01-15T10:44:49.754Z,97845.97
2019-01-15T10:45:57.415Z,97850.42
2019-01-15T10:47:05.327Z,97849.88
2019-01-15T10:48:13.274Z,97842.29
2019-01-15T10:49:20.961Z,97846.59
2019-01-15T10:50:29.067Z,97842.29
2019-01-15T10:51:36.696Z,97838.98
2019-01-15T10:52:44.534Z,97846.72
2019-01-15T10:53:52.422Z,97845.37
2019-01-15T10:55:00.546Z,97829.00
2019-01-15T10:56:08.366Z,97828.78
2019-01-15T10:57:16.004Z,97818.27
2019-01-15T10:58:23.867Z,97825.16
2019-01-15T10:59:32.106Z,97822.27
2019-01-15T11:00:39.824Z,97819.65
2019-01-15T11:01:47.815Z,97822.17
2019-01-15T11:02:55.511Z,97826.09
2019-01-15T11:04:03.410Z,97821.25
2019-01-15T11:05:12.666Z,97814.43
2019-01-15T11:06:20.380Z,97816.80
2019-01-15T11:07:28.207Z,97807.83
2019-01-15T11:08:36.303Z,97807.13
2019-01-15T11:09:43.978Z,97810.20
2019-01-15T11:10:51.548Z,97804.67
2019-01-15T11:11:59.343Z,97801.22
2019-01-15T11:13:07.031Z,97810.05
2019-01-15T11:14:16.286Z,97809.71
2019-01-15T11:15:23.947Z,97802.12
2019-01-15T11:16:31.738Z,97809.87
2019-01-15T11:17:39.429Z,97803.96
2019-01-15T11:18:47.450Z,97809.56
2019-01-15T11:19:55.405Z,97809.42
2019-01-15T11:21:03.772Z,97814.58
2019-01-15T11:22:11.727Z,97810.97
2019-01-15T11:23:19.903Z,97796.75
2019-01-15T11:24:27.698Z,97808.11
2019-01-15T11:25:37.258Z,97808.95
2019-01-15T11:26:45.143Z,97796.45
2019-01-15T11:27:53.497Z,97798.98
2019-01-15T11:29:01.144Z,97791.52
2019-01-15T11:30:14.554Z,97799.98
2019-01-15T11:31:22.155Z,97801.20
2019-01-15T11:32:29.978Z,97802.34
2019-01-15T11:33:37.810Z,97796.75
2019-01-15T11:34:49.097Z,97794.98
2019-01-15T11:35:56.872Z,97790.30
2019-01-15T11:37:22.987Z,97784.80
2019-01-15T11:38:30.755Z,97784.17
2019-01-15T11:39:38.632Z,97782.70
2019-01-15T11:40:46.284Z,97784.09
2019-01-15T11:41:53.776Z,97782.33
2019-01-15T11:43:01.452Z,97777.88
2019-01-15T11:44:09.811Z,97782.26
2019-01-15T11:45:21.244Z,97777.88
2019-01-15T11:46:28.712Z,97779.73
2019-01-15T11:47:36.362Z,97779.35
2019-01-15T11:48:44.239Z,97776.96
2019-01-15T11:49:52.267Z,97776.13
2019-01-15T11:51:00.040Z,97768.84
2019-01-15T11:52:07.782Z,97773.67
2019-01-15T11:53:15.617Z,97778.35
2019-01-15T11:54:23.233Z,97766.31
2019-01-15T11:55:31.111Z,97776.80
2019-01-15T11:56:39.061Z,97778.11
2019-01-15T11:57:46.901Z,97771.75
2019-01-15T11:58:55.091Z,97779.79
2019-01-15T12:00:03.082Z,97772.76
2019-01-15T12:01:13.922Z,97770.66
2019-01-15T12:02:22.730Z,97776.26
2019-01-15T12:03:38.369Z,97776.13
2019-01-15T12:04:47.917Z,97778.41
2019-01-15T12:06:00.202Z,97758.63
2019-01-15T12:07:09.797Z,97762.54
2019-01-15T12:08:25.527Z,97765.36
2019-01-15T12:09:52.929Z,97761.91
2019-01-15T12:11:00.670Z,97760.98
2019-01-15T12:12:19.163Z,97760.15
2019-01-15T12:13:31.042Z,97762.76
2019-01-15T12:14:55.398Z,97763.22
2019-01-15T12:16:20.680Z,97753.08
2019-01-15T12:17:33.025Z,97760.81
2019-01-15T12:18:50.025Z,97744.16
2019-01-15T12:19:59.251Z,97753.57
2019-01-15T12:21:14.621Z,97742.92
2019-01-15T12:22:27.725Z,97752.17
2019-01-15T12:23:55.249Z,97749.11
2019-01-15T12:25:07.536Z,97740.78
2019-01-15T12:26:19.870Z,97744.45
2019-01-15T12:27:47.638Z,97734.87
2019-01-15T12:29:06.649Z,97747.59
2019-01-15T12:30:17.190Z,97743.05
2019-01-15T12:31:26.469Z,97735.94
2019-01-15T12:32:36.356Z,97739.59
2019-01-15T12:33:57.554Z,97740.44
2019-01-15T12:35:09.313Z,97732.08
2019-01-15T12:36:18.594Z,97731.95
2019-01-15T12:37:43.857Z,97728.34
2019-01-15T12:38:51.386Z,97728.67
2019-01-15T12:40:17.409Z,97724.81
2019-01-15T12:41:26.776Z,97727.12
2019-01-15T12:42:39.234Z,97732.16
2019-01-15T12:44:00.546Z,97734.38
2019-01-15T12:45:30.950Z,97730.86
2019-01-15T12:46:49.158Z,97727.73
2019-01-15T12:48:16.010Z,97723.13
2019-01-15T12:49:28.202Z,97716.48
2019-01-15T12:50:37.297Z,97726.45
2019-01-15T12:51:46.441Z,97724.69
2019-01-15T12:52:58.412Z,97719.47
2019-01-15T12:54:16.690Z,97716.32
2019-01-15T12:55:38.292Z,97715.40
2019-01-15T12:56:50.454Z,97719.31
2019-01-15T12:58:16.132Z,97720.53
2019-01-15T12:59:25.534Z,97715.65
2019-01-15T13:00:50.910Z,97719.78
2019-01-15T13:02:09.079Z,97713.51
2019-01-15T13:03:19.298Z,97717.04
2019-01-15T13:04:31.455Z,97718.85
2019-01-15T13:05:43.957Z,97709.81
2019-01-15T13:07:09.525Z,97706.23
2019-01-15T13:08:24.776Z,97712.75
2019-01-15T13:09:40.121Z,97717.12
2019-01-15T13:10:49.305Z,97711.58
2019-01-15T13:11:59.461Z,97708.97
2019-01-15T13:13:09.117Z,97715.87
2019-01-15T13:14:18.340Z,97716.79
2019-01-15T13:15:43.772Z,97717.96
2019-01-15T13:17:09.176Z,97717.42
2019-01-15T13:18:21.159Z,97710.98
2019-01-15T13:19:39.603Z,97720.57
2019-01-15T13:21:05.368Z,97720.41
2019-01-15T13:22:17.910Z,97713.30
2019-01-15T13:23:35.718Z,97728.69
2019-01-15T13:24:44.871Z,97712.29
2019-01-15T13:26:03.199Z,97712.75
2019-01-15T13:27:12.448Z,97716.74
2019-01-15T13:28:29.312Z,97716.33
2019-01-15T13:29:38.683Z,97723.85
2019-01-15T13:30:59.738Z,97716.74
2019-01-15T13:32:08.911Z,97706.23